Southgate, MI (48195)

01:09 EDT 23. Říjen 2014 (GMT -0400)
Castle and Burns St. | Change Station
CLOSE
Current Station
Osobní povětrnostní stanice
Location: Southgate, MI
Nadmořská výška: 176 m
Poblíž povětrnostní stanice

Výška 176 m 42.21 °N, 83.19 °W | Updated 4 minutes ago

Jasno
Jasno
5.7 °C
Pocit jako 6 °C
S
0.0
Vítr proměnlivý Vítr od severní
Gusts 0.0 km/h

Dnes
Vysoké -- | Nízké -- °C
--% Možnost srážek
Včera
Vysoké -- | Nízké -- °C
Precip. -- mm
7:54 AM 6:38 PM
Ubývající srpek, 1% visible
Tlak 1026 hPa
Viditelnost 16.1 kilometrů
Zataženo Jasno
Ochlazování větrem 6 °C
Rosný bod 3 °C
Vlhkost 86%
Dešťové srážky 0 mm
Sněhová pokrývka Není k dispozici
UV záření 0.0 ze 12
Pyl .30 ze 12
Ozón Dobrý
PM2.5 Dobrý
Flu Activity Sporadic
METAR KDTW 230453Z 31003KT 10SM CLR 04/03 A3029 RMK AO2 SLP259 T00440028 401440044 $

More Conditions Fewer Conditions

Tlak 1026 hPa
Viditelnost 16.1 kilometrů
Zataženo Jasno
Ochlazování větrem 6 °C
Rosný bod 3 °C
Vlhkost 86%
Dešťové srážky 0 mm
Sněhová pokrývka Není k dispozici
UV záření 0.0 ze 12
Pyl .30 ze 12
Ozón Dobrý
PM2.5 Dobrý
Flu Activity Sporadic
METAR KDTW 230453Z 31003KT 10SM CLR 04/03 A3029 RMK AO2 SLP259 T00440028 401440044 $

More Conditions Fewer Conditions

10-Day Weather Forecast

Almanac

Astronomie

Oct. 23, 2014 Východ Západ
Skutečný čas 07:54 EDT 18:38 EDT
Občanský soumrak 07:26 EDT 19:07 EDT
Námořní soumrak 06:53 EDT 19:39 EDT
Astronomický soumrak 06:21 EDT 20:12 EDT
Měsíc 07:33 EDT 18:39 EDT
Délka denního světla 11h 41m
Délka dne
10h 43m
Tomorrow will be 2m 39s shorter.
Ubývající srpek, 1% of the Moon is Illuminated
Dnes
Ubývající srpek
Říj 23
Nov
Říj 30
První čtvrť
Lis 6
Úplněk
Lis 14
Ubývající

Dnešní extrémy

State Highs State Lows

Community

WunderPhotos

Upload Photos

1,764,169 snímků staženo!

Nearby

Kvalita ovzduší

  Kvalita ovzduší Index kvality ovzduší Polutant
Včera Dobrý
PM10
Včera Dobrý
OZONE
Nyní Dobrý
PM2.5
Nyní Dobrý
OZONE
Středa Dobrý
PM2.5
Čtvrtek Dobrý
PM2.5
Pátek Střední
PM2.5
Sobota Dobrý
PM2.5
Neděle Dobrý
PM2.5
Pondělí Střední
PM2.5

Výška sněhu

Station Hloubka Nadmořská výška
Žádný nový sníh nebyl hlášen

Seizmická činnost

Město Distance Mag. Čas & datum
Žádné zemětřesení v okolí nebylo hlášeno
Minimální zobrazený rozsah je 2.5.

Pobřežní teplota vody

Lokalita Teplota
Marblehead, OH 11.1 °C

Poblíž povětrnostní stanice